createdAt,value
2023-05-08T00:01:21.012Z,4.90
2023-05-08T00:03:47.964Z,4.90
2023-05-08T00:06:16.035Z,4.70
2023-05-08T00:08:43.266Z,4.60
2023-05-08T00:11:11.061Z,5.00
2023-05-08T00:13:37.618Z,4.60
2023-05-08T00:16:04.462Z,4.70
2023-05-08T00:18:31.016Z,4.60
2023-05-08T00:20:57.642Z,4.75
2023-05-08T00:23:25.560Z,5.05
2023-05-08T00:25:52.094Z,4.70
2023-05-08T00:28:18.628Z,4.33
2023-05-08T00:30:45.187Z,4.13
2023-05-08T00:33:11.781Z,4.15
2023-05-08T00:35:38.702Z,4.30
2023-05-08T00:38:05.330Z,4.00
2023-05-08T00:40:33.276Z,4.50
2023-05-08T00:42:59.804Z,4.20
2023-05-08T00:45:34.483Z,4.10
2023-05-08T00:48:01.691Z,4.32
2023-05-08T00:50:28.966Z,4.28
2023-05-08T00:52:56.916Z,4.17
2023-05-08T00:55:24.589Z,3.47
2023-05-08T00:57:52.562Z,3.88
2023-05-08T01:00:20.880Z,4.38
2023-05-08T01:02:47.759Z,3.63
2023-05-08T01:05:14.427Z,4.17
2023-05-08T01:07:41.214Z,4.15
2023-05-08T01:10:09.009Z,3.92
2023-05-08T01:12:47.572Z,4.25
2023-05-08T01:15:18.880Z,3.85
2023-05-08T01:17:57.467Z,4.00
2023-05-08T01:20:35.353Z,3.78
2023-05-08T01:23:43.365Z,4.10
2023-05-08T01:26:49.856Z,3.63
2023-05-08T01:29:44.155Z,3.78
2023-05-08T01:32:15.902Z,3.40
2023-05-08T01:34:49.811Z,3.55
2023-05-08T01:37:23.774Z,3.33
2023-05-08T01:40:00.837Z,2.90
2023-05-08T01:42:35.893Z,3.22
2023-05-08T01:45:08.997Z,3.00
2023-05-08T01:47:38.277Z,3.55
2023-05-08T01:50:09.286Z,3.28
2023-05-08T01:52:43.589Z,3.40
2023-05-08T01:55:15.742Z,3.33
2023-05-08T01:57:46.886Z,3.07
2023-05-08T02:00:17.544Z,2.92
2023-05-08T02:02:48.038Z,3.40
2023-05-08T02:05:15.227Z,3.17
2023-05-08T02:07:43.945Z,2.83
2023-05-08T02:10:12.600Z,3.10
2023-05-08T02:12:41.885Z,3.20
2023-05-08T02:15:09.650Z,2.95
2023-05-08T02:17:38.605Z,2.92
2023-05-08T02:20:09.061Z,3.13
2023-05-08T02:22:37.002Z,3.20
2023-05-08T02:25:04.313Z,3.33
2023-05-08T02:27:32.003Z,2.90
2023-05-08T02:29:59.222Z,2.90
2023-05-08T02:32:27.982Z,2.97
2023-05-08T02:35:03.223Z,3.17
2023-05-08T02:37:33.048Z,3.35
2023-05-08T02:40:01.355Z,2.92
2023-05-08T02:42:27.820Z,3.28
2023-05-08T02:44:54.362Z,3.22
2023-05-08T02:47:26.019Z,3.00
2023-05-08T02:49:57.127Z,3.10
2023-05-08T02:52:28.613Z,3.13
2023-05-08T02:55:00.190Z,3.28
2023-05-08T02:57:37.445Z,2.90
2023-05-08T03:00:12.236Z,3.10
2023-05-08T03:02:41.402Z,3.10
2023-05-08T03:05:15.415Z,3.03
2023-05-08T03:07:43.642Z,3.17
2023-05-08T03:10:13.653Z,3.40
2023-05-08T03:12:44.618Z,3.73
2023-05-08T03:15:17.989Z,3.22
2023-05-08T03:17:46.205Z,3.55
2023-05-08T03:20:16.947Z,4.20
2023-05-08T03:22:46.724Z,3.97
2023-05-08T03:25:17.754Z,4.10
2023-05-08T03:27:45.477Z,3.80
2023-05-08T03:30:13.333Z,3.85
2023-05-08T03:32:41.198Z,3.72
2023-05-08T03:35:09.710Z,3.97
2023-05-08T03:37:38.373Z,3.60
2023-05-08T03:40:07.182Z,3.92
2023-05-08T03:42:36.018Z,4.10
2023-05-08T03:45:03.903Z,3.83
2023-05-08T03:47:32.094Z,3.80
2023-05-08T03:50:00.246Z,3.97
2023-05-08T03:52:26.806Z,3.70
2023-05-08T03:54:53.457Z,4.00
2023-05-08T03:57:20.246Z,4.30
2023-05-08T03:59:54.506Z,4.22
2023-05-08T04:02:28.783Z,4.20
2023-05-08T04:05:01.836Z,4.15
2023-05-08T04:07:35.819Z,4.20
2023-05-08T04:10:09.249Z,4.20
2023-05-08T04:12:40.552Z,4.25
2023-05-08T04:15:13.891Z,4.40
2023-05-08T04:17:43.721Z,4.60
2023-05-08T04:20:15.037Z,4.60
2023-05-08T04:22:43.251Z,4.35
2023-05-08T04:25:12.571Z,4.53
2023-05-08T04:27:39.370Z,4.47
2023-05-08T04:30:07.705Z,4.90
2023-05-08T04:32:38.370Z,5.20
2023-05-08T04:35:07.995Z,5.00
2023-05-08T04:37:34.806Z,5.15
2023-05-08T04:40:24.924Z,5.10
2023-05-08T04:42:51.720Z,5.32
2023-05-08T04:45:18.590Z,5.22
2023-05-08T04:47:46.912Z,5.50
2023-05-08T04:50:13.589Z,5.43
2023-05-08T04:52:40.248Z,5.40
2023-05-08T04:55:08.296Z,5.70
2023-05-08T04:57:34.873Z,5.20
2023-05-08T05:00:01.477Z,5.20
2023-05-08T05:02:28.212Z,4.95
2023-05-08T05:04:56.240Z,5.37
2023-05-08T05:07:22.787Z,5.38
2023-05-08T05:09:49.504Z,5.13
2023-05-08T05:12:16.066Z,5.75
2023-05-08T05:14:42.633Z,5.60
2023-05-08T05:17:09.244Z,4.80
2023-05-08T05:19:35.811Z,5.10
2023-05-08T05:22:03.686Z,5.55
2023-05-08T05:24:30.252Z,5.47
2023-05-08T05:26:56.913Z,5.95
2023-05-08T05:29:23.691Z,5.50
2023-05-08T05:31:50.214Z,5.35
2023-05-08T05:34:16.754Z,5.60
2023-05-08T05:36:43.483Z,5.03
2023-05-08T05:39:11.403Z,5.57
2023-05-08T05:41:37.918Z,5.20
2023-05-08T05:44:04.798Z,4.68
2023-05-08T05:46:31.363Z,5.38
2023-05-08T05:48:59.482Z,5.43
2023-05-08T05:51:26.245Z,5.22
2023-05-08T05:53:52.840Z,4.97
2023-05-08T05:56:20.860Z,5.07
2023-05-08T05:58:47.398Z,5.05
2023-05-08T06:01:14.285Z,5.20
2023-05-08T06:03:40.961Z,5.53
2023-05-08T06:06:08.119Z,4.97
2023-05-08T06:08:34.929Z,5.15
2023-05-08T06:11:01.685Z,5.13
2023-05-08T06:13:30.065Z,4.97
2023-05-08T06:15:56.757Z,4.60
2023-05-08T06:18:23.646Z,4.60
2023-05-08T06:20:56.999Z,4.97
2023-05-08T06:23:23.662Z,4.68
2023-05-08T06:25:50.402Z,4.75
2023-05-08T06:28:17.673Z,4.78
2023-05-08T06:30:45.782Z,4.90
2023-05-08T06:33:12.409Z,4.90
2023-05-08T06:35:38.986Z,4.55
2023-05-08T06:38:05.751Z,4.82
2023-05-08T06:40:32.457Z,4.65
2023-05-08T06:42:59.073Z,4.67
2023-05-08T06:45:25.739Z,5.00
2023-05-08T06:47:53.784Z,4.30
2023-05-08T06:50:20.606Z,4.57
2023-05-08T06:52:47.161Z,4.10
2023-05-08T06:55:13.943Z,3.80
2023-05-08T06:57:40.669Z,4.30
2023-05-08T07:00:08.656Z,4.13
2023-05-08T07:02:35.356Z,3.53
2023-05-08T07:05:03.778Z,3.85
2023-05-08T07:07:30.392Z,4.03
2023-05-08T07:09:56.916Z,4.00
2023-05-08T07:12:23.704Z,3.78
2023-05-08T07:14:50.290Z,3.70
2023-05-08T07:17:16.894Z,3.70
2023-05-08T07:19:43.512Z,3.60
2023-05-08T07:22:11.491Z,3.80
2023-05-08T07:24:38.204Z,3.47
2023-05-08T07:27:04.832Z,4.18
2023-05-08T07:29:31.406Z,3.97
2023-05-08T07:31:58.126Z,4.20
2023-05-08T07:34:24.832Z,3.80
2023-05-08T07:36:51.375Z,3.80
2023-05-08T07:39:19.442Z,3.40
2023-05-08T07:41:48.415Z,3.70
2023-05-08T07:44:16.264Z,3.97
2023-05-08T07:46:42.906Z,3.58
2023-05-08T07:49:09.869Z,3.90
2023-05-08T07:51:36.433Z,3.42
2023-05-08T07:54:03.008Z,3.70
2023-05-08T07:56:31.022Z,3.80
2023-05-08T07:58:57.768Z,4.00
2023-05-08T08:01:24.371Z,3.83
2023-05-08T08:03:51.192Z,4.10
2023-05-08T08:06:17.865Z,3.88
2023-05-08T08:08:44.434Z,4.00
2023-05-08T08:11:11.039Z,4.00
2023-05-08T08:13:38.978Z,4.20
2023-05-08T08:16:06.459Z,4.65
2023-05-08T08:18:34.529Z,4.35
2023-05-08T08:21:01.081Z,4.70
2023-05-08T08:23:27.685Z,4.40
2023-05-08T08:25:54.235Z,4.57
2023-05-08T08:28:20.845Z,4.72
2023-05-08T08:30:48.811Z,4.63
2023-05-08T08:33:17.505Z,4.23
2023-05-08T08:35:45.484Z,4.15
2023-05-08T08:38:12.441Z,4.68
2023-05-08T08:40:39.784Z,4.60
2023-05-08T08:43:06.417Z,4.55
2023-05-08T08:45:33.258Z,3.63
2023-05-08T08:48:03.247Z,4.38
2023-05-08T08:50:31.760Z,4.20
2023-05-08T08:53:04.455Z,4.55
2023-05-08T08:55:32.527Z,4.07
2023-05-08T08:58:14.468Z,4.10
2023-05-08T09:00:42.053Z,4.03
2023-05-08T09:03:10.456Z,4.13
2023-05-08T09:05:37.552Z,4.03
2023-05-08T09:08:05.589Z,4.18
2023-05-08T09:10:32.830Z,4.00
2023-05-08T09:12:59.444Z,4.30
2023-05-08T09:15:26.114Z,3.88
2023-05-08T09:17:52.821Z,3.35
2023-05-08T09:20:21.432Z,4.00
2023-05-08T09:22:49.204Z,3.83
2023-05-08T09:25:15.947Z,3.92
2023-05-08T09:27:42.712Z,3.85
2023-05-08T09:30:13.033Z,4.00
2023-05-08T09:32:41.091Z,3.55
2023-05-08T09:35:09.902Z,3.60
2023-05-08T09:37:40.395Z,3.80
2023-05-08T09:40:18.752Z,3.90
2023-05-08T09:42:45.823Z,3.65
2023-05-08T09:45:27.282Z,3.60
2023-05-08T09:47:54.012Z,3.60
2023-05-08T09:50:20.713Z,3.47
2023-05-08T09:52:49.826Z,3.97
2023-05-08T09:55:16.889Z,3.35
2023-05-08T09:57:53.371Z,3.85
2023-05-08T10:00:20.861Z,3.63
2023-05-08T10:02:55.647Z,3.60
2023-05-08T10:05:24.612Z,4.40
2023-05-08T10:07:52.682Z,4.03
2023-05-08T10:10:23.605Z,4.13
2023-05-08T10:12:51.821Z,3.40
2023-05-08T10:15:18.539Z,3.92
2023-05-08T10:17:54.212Z,4.15
2023-05-08T10:20:21.738Z,3.47
2023-05-08T10:22:49.317Z,3.67
2023-05-08T10:25:22.287Z,4.20
2023-05-08T10:27:59.492Z,3.53
2023-05-08T10:30:26.830Z,3.30
2023-05-08T10:32:54.589Z,3.10
2023-05-08T10:35:21.941Z,3.63
2023-05-08T10:37:50.029Z,3.63
2023-05-08T10:40:18.455Z,3.83
2023-05-08T10:42:45.516Z,3.42
2023-05-08T10:45:12.782Z,3.50
2023-05-08T10:47:53.413Z,2.97
2023-05-08T10:50:34.810Z,3.10
2023-05-08T10:53:06.844Z,2.88
2023-05-08T10:55:37.090Z,3.20
2023-05-08T10:58:12.008Z,3.42
2023-05-08T11:01:11.910Z,3.30
2023-05-08T11:03:40.501Z,3.87
2023-05-08T11:06:07.218Z,3.13
2023-05-08T11:08:44.188Z,2.92
2023-05-08T11:11:17.590Z,3.00
2023-05-08T11:13:49.562Z,2.63
2023-05-08T11:16:16.306Z,2.50
2023-05-08T11:19:16.561Z,2.40
2023-05-08T11:22:13.392Z,2.22
2023-05-08T11:24:46.751Z,2.08
2023-05-08T11:27:14.764Z,2.00
2023-05-08T11:29:41.457Z,2.53
2023-05-08T11:32:08.233Z,2.50
2023-05-08T11:34:47.645Z,3.05
2023-05-08T11:37:18.348Z,2.53
2023-05-08T11:39:44.936Z,2.40
2023-05-08T11:42:34.798Z,2.43
2023-05-08T11:45:06.380Z,2.92
2023-05-08T11:47:39.201Z,2.55
2023-05-08T11:50:07.852Z,2.90
2023-05-08T11:52:35.868Z,3.65
2023-05-08T11:55:04.690Z,2.97
2023-05-08T11:57:31.770Z,2.83
2023-05-08T12:00:04.402Z,2.60
2023-05-08T12:02:38.675Z,2.90
2023-05-08T12:05:07.211Z,2.38
2023-05-08T12:07:33.871Z,2.57
2023-05-08T12:10:01.553Z,2.53
2023-05-08T12:12:37.822Z,2.30
2023-05-08T12:15:10.473Z,2.38
2023-05-08T12:17:37.202Z,2.17
2023-05-08T12:20:11.211Z,2.30
2023-05-08T12:22:38.922Z,2.70
2023-05-08T12:25:07.750Z,2.83
2023-05-08T12:27:34.404Z,2.70
2023-05-08T12:30:01.033Z,2.42
2023-05-08T12:32:29.848Z,2.40
2023-05-08T12:34:57.118Z,3.10
2023-05-08T12:37:24.401Z,2.63
2023-05-08T12:39:51.001Z,2.38
2023-05-08T12:42:17.642Z,2.80
2023-05-08T12:44:50.518Z,2.80
2023-05-08T12:47:18.971Z,2.80
2023-05-08T12:49:47.851Z,2.40
2023-05-08T12:52:15.270Z,2.40
2023-05-08T12:54:48.043Z,2.25
2023-05-08T12:57:17.458Z,2.63
2023-05-08T12:59:45.020Z,2.65
2023-05-08T13:02:13.967Z,2.90
2023-05-08T13:04:40.786Z,3.00
2023-05-08T13:07:08.892Z,3.00
2023-05-08T13:09:35.483Z,3.03
2023-05-08T13:12:02.213Z,2.47
2023-05-08T13:14:28.860Z,3.00
2023-05-08T13:16:55.977Z,2.67
2023-05-08T13:19:22.729Z,2.50
2023-05-08T13:21:49.324Z,2.80
2023-05-08T13:24:17.344Z,2.55
2023-05-08T13:26:43.940Z,2.70
2023-05-08T13:29:11.676Z,2.40
2023-05-08T13:31:38.347Z,2.60
2023-05-08T13:34:04.984Z,2.50
2023-05-08T13:36:31.600Z,2.20
2023-05-08T13:38:58.066Z,2.20
2023-05-08T13:41:26.306Z,2.80
2023-05-08T13:43:52.933Z,2.72
2023-05-08T13:46:19.581Z,3.43
2023-05-08T13:48:46.147Z,2.88
2023-05-08T13:51:12.876Z,2.80
2023-05-08T13:53:39.490Z,2.35
2023-05-08T13:56:06.482Z,2.47
2023-05-08T13:58:34.473Z,2.23
2023-05-08T14:01:10.437Z,2.08
2023-05-08T14:03:44.623Z,2.28
2023-05-08T14:06:11.278Z,2.38
2023-05-08T14:08:45.224Z,2.38
2023-05-08T14:11:13.841Z,2.57
2023-05-08T14:13:44.932Z,2.10
2023-05-08T14:16:11.555Z,2.47
2023-05-08T14:18:38.222Z,2.33
2023-05-08T14:21:05.057Z,2.00
2023-05-08T14:23:31.706Z,2.30
2023-05-08T14:25:58.457Z,2.60
2023-05-08T14:28:25.039Z,2.30
2023-05-08T14:30:53.034Z,2.42
2023-05-08T14:33:19.652Z,2.42
2023-05-08T14:35:46.354Z,2.67
2023-05-08T14:38:12.920Z,2.50
2023-05-08T14:40:39.529Z,3.30
2023-05-08T14:43:06.158Z,3.35
2023-05-08T14:45:32.769Z,3.50
2023-05-08T14:48:00.973Z,3.47
2023-05-08T14:50:27.741Z,3.30
2023-05-08T14:52:54.438Z,3.53
2023-05-08T14:55:21.994Z,2.78
2023-05-08T14:57:48.944Z,3.92
2023-05-08T15:00:17.333Z,3.73
2023-05-08T15:02:44.779Z,3.08
2023-05-08T15:08:01.391Z,3.75
2023-05-08T15:10:28.029Z,3.40
2023-05-08T15:12:54.814Z,3.90
2023-05-08T15:15:21.616Z,4.13
2023-05-08T15:17:48.456Z,4.13
2023-05-08T15:20:16.378Z,3.88
2023-05-08T15:22:43.009Z,3.97
2023-05-08T15:25:09.927Z,4.07
2023-05-08T15:27:36.492Z,3.90
2023-05-08T15:30:03.651Z,4.28
2023-05-08T15:32:30.315Z,4.22
2023-05-08T15:34:57.067Z,4.10
2023-05-08T15:37:25.013Z,4.40
2023-05-08T15:39:51.573Z,4.20
2023-05-08T15:42:18.220Z,3.97
2023-05-08T15:47:14.496Z,4.22
2023-05-08T15:49:41.133Z,4.50
2023-05-08T15:52:07.686Z,4.22
2023-05-08T15:54:35.602Z,4.20
2023-05-08T15:57:02.195Z,4.45
2023-05-08T15:59:28.745Z,4.80
2023-05-08T16:01:55.417Z,4.93
2023-05-08T16:04:22.059Z,5.25
2023-05-08T16:06:48.766Z,4.63
2023-05-08T16:09:15.406Z,5.03
2023-05-08T16:11:43.867Z,4.75
2023-05-08T16:14:10.455Z,5.30
2023-05-08T16:16:38.226Z,5.78
2023-05-08T16:19:04.832Z,5.32
2023-05-08T16:21:31.433Z,5.10
2023-05-08T16:23:57.984Z,5.20
2023-05-08T16:26:24.547Z,6.23
2023-05-08T16:28:52.717Z,5.97
2023-05-08T16:31:19.309Z,5.63
2023-05-08T16:33:46.063Z,6.18
2023-05-08T16:36:12.819Z,5.22
2023-05-08T16:38:39.399Z,6.13
2023-05-08T16:41:07.316Z,6.18
2023-05-08T16:43:33.949Z,5.97
2023-05-08T16:46:01.977Z,6.10
2023-05-08T16:48:28.595Z,6.15
2023-05-08T16:50:55.160Z,6.27
2023-05-08T16:53:21.786Z,6.10
2023-05-08T16:55:48.415Z,6.30
2023-05-08T16:58:15.008Z,6.30
2023-05-08T17:00:41.606Z,6.07
2023-05-08T17:03:09.687Z,6.27
2023-05-08T17:05:37.099Z,6.20
2023-05-08T17:08:03.792Z,5.70
2023-05-08T17:10:30.664Z,6.25
2023-05-08T17:12:57.325Z,6.13
2023-05-08T17:15:23.922Z,6.20
2023-05-08T17:17:50.502Z,6.20
2023-05-08T17:20:18.820Z,6.40
2023-05-08T17:22:45.472Z,6.05
2023-05-08T17:25:12.058Z,6.30
2023-05-08T17:27:44.913Z,6.07
2023-05-08T17:30:12.076Z,5.80
2023-05-08T17:32:39.121Z,5.13
2023-05-08T17:35:06.768Z,5.35
2023-05-08T17:37:34.811Z,5.65
2023-05-08T17:40:01.421Z,5.00
2023-05-08T17:42:27.967Z,4.93
2023-05-08T17:44:54.544Z,4.60
2023-05-08T17:47:21.163Z,5.35
2023-05-08T17:49:47.800Z,5.10
2023-05-08T17:52:14.373Z,4.90
2023-05-08T17:54:42.308Z,4.32
2023-05-08T17:57:08.860Z,4.68
2023-05-08T17:59:35.513Z,3.70
2023-05-08T18:02:02.081Z,4.20
2023-05-08T18:04:28.643Z,4.40
2023-05-08T18:06:55.195Z,3.70
2023-05-08T18:09:21.734Z,3.95
2023-05-08T18:11:49.800Z,3.90
2023-05-08T18:14:16.360Z,3.22
2023-05-08T18:16:42.946Z,3.73
2023-05-08T18:19:09.549Z,3.83
2023-05-08T18:21:36.139Z,3.38
2023-05-08T18:24:02.701Z,3.58
2023-05-08T18:26:29.327Z,3.47
2023-05-08T18:28:57.300Z,3.67
2023-05-08T18:31:23.885Z,3.50
2023-05-08T18:33:50.491Z,3.95
2023-05-08T18:36:17.094Z,3.63
2023-05-08T18:38:43.655Z,3.75
2023-05-08T18:41:10.334Z,3.40
2023-05-08T18:43:36.984Z,3.35
2023-05-08T18:46:12.080Z,3.72
2023-05-08T18:48:39.013Z,3.50
2023-05-08T18:51:05.432Z,3.85
2023-05-08T18:53:33.070Z,3.90
2023-05-08T18:56:02.245Z,3.63
2023-05-08T18:58:28.800Z,3.60
2023-05-08T19:00:55.522Z,3.92
2023-05-08T19:03:23.596Z,3.85
2023-05-08T19:05:50.476Z,3.63
2023-05-08T19:08:17.143Z,3.70
2023-05-08T19:10:43.757Z,4.00
2023-05-08T19:13:10.413Z,3.65
2023-05-08T19:15:37.188Z,3.58
2023-05-08T19:18:04.262Z,3.93
2023-05-08T19:20:32.982Z,3.67
2023-05-08T19:22:59.563Z,3.60
2023-05-08T19:25:26.291Z,3.80
2023-05-08T19:27:52.827Z,3.83
2023-05-08T19:30:19.504Z,4.23
2023-05-08T19:32:46.053Z,3.72
2023-05-08T19:35:12.967Z,4.05
2023-05-08T19:37:41.006Z,3.90
2023-05-08T19:40:08.801Z,3.70
2023-05-08T19:42:35.593Z,4.00
2023-05-08T19:45:02.138Z,3.78
2023-05-08T19:47:28.812Z,3.70
2023-05-08T19:49:55.485Z,4.22
2023-05-08T19:52:22.185Z,3.90
2023-05-08T19:54:50.136Z,3.97
2023-05-08T19:57:16.780Z,4.00
2023-05-08T19:59:43.353Z,4.45
2023-05-08T20:02:09.922Z,4.32
2023-05-08T20:04:48.686Z,4.18
2023-05-08T20:07:23.316Z,3.33
2023-05-08T20:09:51.323Z,4.20
2023-05-08T20:12:18.026Z,4.10
2023-05-08T20:14:45.064Z,4.18
2023-05-08T20:17:11.633Z,3.88
2023-05-08T20:19:38.359Z,4.23
2023-05-08T20:22:05.074Z,4.00
2023-05-08T20:24:31.888Z,4.20
2023-05-08T20:26:59.834Z,4.90
2023-05-08T20:29:26.485Z,4.50
2023-05-08T20:31:53.737Z,4.33
2023-05-08T20:34:21.930Z,4.72
2023-05-08T20:36:49.532Z,4.63
2023-05-08T20:39:16.232Z,4.50
2023-05-08T20:41:42.853Z,4.63
2023-05-08T20:44:10.817Z,4.60
2023-05-08T20:46:37.401Z,4.90
2023-05-08T20:49:03.987Z,4.80
2023-05-08T20:51:30.562Z,5.13
2023-05-08T20:53:57.146Z,4.78
2023-05-08T20:56:23.720Z,4.90
2023-05-08T20:58:50.368Z,4.85
2023-05-08T21:01:20.688Z,5.20
2023-05-08T21:03:47.708Z,4.85
2023-05-08T21:06:14.329Z,5.60
2023-05-08T21:08:40.891Z,4.90
2023-05-08T21:11:07.533Z,5.38
2023-05-08T21:13:34.142Z,5.22
2023-05-08T21:16:01.048Z,5.13
2023-05-08T21:18:29.084Z,5.50
2023-05-08T21:20:55.644Z,5.27
2023-05-08T21:23:22.471Z,5.30
2023-05-08T21:25:49.545Z,5.43
2023-05-08T21:28:17.281Z,5.28
2023-05-08T21:30:43.958Z,5.22
2023-05-08T21:33:10.746Z,5.80
2023-05-08T21:35:38.664Z,5.88
2023-05-08T21:38:05.239Z,5.97
2023-05-08T21:40:31.849Z,6.15
2023-05-08T21:42:58.424Z,5.60
2023-05-08T21:45:24.963Z,5.83
2023-05-08T21:47:51.768Z,6.15
2023-05-08T21:50:18.349Z,6.07
2023-05-08T21:52:46.295Z,5.95
2023-05-08T21:55:13.145Z,5.80
2023-05-08T21:57:40.033Z,6.17
2023-05-08T22:00:08.194Z,5.93
2023-05-08T22:02:35.137Z,6.30
2023-05-08T22:05:01.664Z,6.43
2023-05-08T22:07:28.460Z,6.35
2023-05-08T22:09:56.393Z,6.30
2023-05-08T22:12:22.938Z,6.22
2023-05-08T22:14:49.521Z,6.28
2023-05-08T22:17:16.390Z,6.97
2023-05-08T22:19:42.927Z,6.35
2023-05-08T22:22:09.462Z,6.40
2023-05-08T22:24:36.283Z,6.72
2023-05-08T22:27:04.334Z,7.10
2023-05-08T22:29:30.870Z,6.93
2023-05-08T22:31:57.451Z,7.25
2023-05-08T22:34:24.192Z,6.73
2023-05-08T22:36:50.780Z,6.47
2023-05-08T22:39:17.618Z,6.68
2023-05-08T22:41:44.248Z,7.25
2023-05-08T22:44:12.354Z,6.63
2023-05-08T22:46:39.118Z,7.00
2023-05-08T22:49:06.016Z,6.75
2023-05-08T22:51:32.617Z,7.30
2023-05-08T22:53:59.375Z,6.90
2023-05-08T22:56:26.092Z,6.70
2023-05-08T22:58:52.618Z,6.50
2023-05-08T23:01:20.689Z,6.88
2023-05-08T23:03:47.437Z,6.53
2023-05-08T23:06:14.031Z,7.05
2023-05-08T23:08:40.577Z,7.47
2023-05-08T23:11:07.160Z,7.00
2023-05-08T23:13:33.759Z,7.35
2023-05-08T23:16:00.769Z,7.22
2023-05-08T23:18:28.747Z,7.47
2023-05-08T23:20:55.597Z,7.72
2023-05-08T23:23:22.178Z,8.17
2023-05-08T23:25:48.847Z,7.45
2023-05-08T23:28:15.380Z,8.18
2023-05-08T23:30:41.933Z,8.48
2023-05-08T23:33:08.519Z,8.00
2023-05-08T23:35:36.332Z,8.80
2023-05-08T23:38:02.942Z,8.70
2023-05-08T23:40:29.490Z,9.15
2023-05-08T23:42:56.129Z,9.07
2023-05-08T23:45:23.143Z,8.88
2023-05-08T23:47:49.702Z,8.70
2023-05-08T23:50:16.518Z,9.15
2023-05-08T23:52:44.446Z,9.40
2023-05-08T23:55:11.444Z,9.30
2023-05-08T23:57:38.166Z,8.93
